sensor_id;sensor_type;location;lat;lon;timestamp;temperature;humidity
55016;DHT22;40919;43.236;21.590;2022-11-18T11:38:16;332.90;2329.60
55016;DHT22;40919;43.236;21.590;2022-11-18T11:41:05;307.80;2304.00
55016;DHT22;40919;43.236;21.590;2022-11-18T11:49:46;332.80;2329.60
55016;DHT22;40919;43.236;21.590;2022-11-18T11:52:39;332.80;2329.60
55016;DHT22;40919;43.236;21.590;2022-11-18T11:58:00;332.90;2329.60
55016;DHT22;40919;43.236;21.590;2022-11-18T12:00:30;333.10;2329.60
55016;DHT22;40919;43.236;21.590;2022-11-18T12:05:44;333.30;2329.60
55016;DHT22;40919;43.236;21.590;2022-11-18T12:08:23;333.50;2329.60
55016;DHT22;40919;43.236;21.590;2022-11-18T12:11:09;333.60;2329.60
55016;DHT22;40919;43.236;21.590;2022-11-18T12:16:54;333.70;2329.60
55016;DHT22;40919;43.236;21.590;2022-11-18T12:19:22;333.70;2329.60
55016;DHT22;40919;43.236;21.590;2022-11-18T12:24:27;333.70;2329.60
55016;DHT22;40919;43.236;21.590;2022-11-18T12:27:06;333.70;2329.60
55016;DHT22;40919;43.236;21.590;2022-11-18T12:29:57;333.70;2329.60
55016;DHT22;40919;43.236;21.590;2022-11-18T12:32:34;333.70;2329.60
55016;DHT22;40919;43.236;21.590;2022-11-18T12:43:00;333.70;2329.60
55016;DHT22;40919;43.236;21.590;2022-11-18T12:50:53;358.40;2329.60
55016;DHT22;40919;43.236;21.590;2022-11-18T12:53:34;358.40;2329.60
55016;DHT22;40919;43.236;21.590;2022-11-18T12:56:31;358.50;2329.60
55016;DHT22;40919;43.236;21.590;2022-11-18T12:58:56;358.50;2329.60
55016;DHT22;40919;43.236;21.590;2022-11-18T13:01:28;358.50;2329.60
55016;DHT22;40919;43.236;21.590;2022-11-18T13:04:15;358.50;2048.00
55016;DHT22;40919;43.236;21.590;2022-11-18T13:06:41;358.50;2329.60
55016;DHT22;40919;43.236;21.590;2022-11-18T13:09:23;358.50;2329.60
55016;DHT22;40919;43.236;21.590;2022-11-18T13:11:54;358.50;2329.60
55016;DHT22;40919;43.236;21.590;2022-11-18T13:14:32;358.50;2329.60
55016;DHT22;40919;43.236;21.590;2022-11-18T13:20:25;358.50;2329.60
55016;DHT22;40919;43.236;21.590;2022-11-18T13:25:48;358.50;2329.60
55016;DHT22;40919;43.236;21.590;2022-11-18T13:33:45;358.60;2329.60
55016;DHT22;40919;43.236;21.590;2022-11-18T13:36:41;358.60;2329.60
55016;DHT22;40919;43.236;21.590;2022-11-18T13:39:21;358.60;2329.60
55016;DHT22;40919;43.236;21.590;2022-11-18T13:42:01;358.50;2329.60
55016;DHT22;40919;43.236;21.590;2022-11-18T13:44:33;358.50;2329.60
55016;DHT22;40919;43.236;21.590;2022-11-18T13:55:05;333.60;2329.60
55016;DHT22;40919;43.236;21.590;2022-11-18T13:57:33;333.60;2329.60
55016;DHT22;40919;43.236;21.590;2022-11-18T14:00:04;333.50;2329.60
55016;DHT22;40919;43.236;21.590;2022-11-18T14:02:36;333.50;2329.60
55016;DHT22;40919;43.236;21.590;2022-11-18T14:05:02;333.40;2329.60
55016;DHT22;40919;43.236;21.590;2022-11-18T14:07:32;333.40;2329.60
55016;DHT22;40919;43.236;21.590;2022-11-18T14:10:06;333.40;2329.60
55016;DHT22;40919;43.236;21.590;2022-11-18T14:12:34;333.40;2329.60
55016;DHT22;40919;43.236;21.590;2022-11-18T14:15:47;333.40;2329.60
55016;DHT22;40919;43.236;21.590;2022-11-18T14:20:51;333.40;2329.60
55016;DHT22;40919;43.236;21.590;2022-11-18T14:23:22;333.40;2329.60
55016;DHT22;40919;43.236;21.590;2022-11-18T14:25:50;333.40;2329.60
55016;DHT22;40919;43.236;21.590;2022-11-18T14:28:25;333.30;2329.60
55016;DHT22;40919;43.236;21.590;2022-11-18T14:31:23;333.20;2329.60
55016;DHT22;40919;43.236;21.590;2022-11-18T14:34:19;333.20;2329.60
55016;DHT22;40919;43.236;21.590;2022-11-18T14:36:46;333.20;2329.60
55016;DHT22;40919;43.236;21.590;2022-11-18T14:41:44;333.10;2329.60
55016;DHT22;40919;43.236;21.590;2022-11-18T14:44:13;333.10;2329.60
55016;DHT22;40919;43.236;21.590;2022-11-18T14:46:40;333.10;2329.60
55016;DHT22;40919;43.236;21.590;2022-11-18T14:49:17;333.10;2329.60
55016;DHT22;40919;43.236;21.590;2022-11-18T14:51:44;333.20;2329.60
55016;DHT22;40919;43.236;21.590;2022-11-18T14:54:12;333.20;2329.60
55016;DHT22;40919;43.236;21.590;2022-11-18T14:56:39;333.20;2329.60
55016;DHT22;40919;43.236;21.590;2022-11-18T14:59:05;333.20;2329.60
55016;DHT22;40919;43.236;21.590;2022-11-18T15:01:30;333.20;2329.60
55016;DHT22;40919;43.236;21.590;2022-11-18T15:03:56;333.20;2329.60
55016;DHT22;40919;43.236;21.590;2022-11-18T15:06:22;333.20;2329.60
55016;DHT22;40919;43.236;21.590;2022-11-18T15:08:51;333.10;2329.60
55016;DHT22;40919;43.236;21.590;2022-11-18T15:11:17;333.10;2329.60
55016;DHT22;40919;43.236;21.590;2022-11-18T15:13:46;333.10;2329.60
55016;DHT22;40919;43.236;21.590;2022-11-18T15:18:39;333.10;2329.60
55016;DHT22;40919;43.236;21.590;2022-11-18T15:21:05;333.20;2329.60
55016;DHT22;40919;43.236;21.590;2022-11-18T15:23:31;333.20;2329.60
55016;DHT22;40919;43.236;21.590;2022-11-18T15:25:56;333.20;2329.60
55016;DHT22;40919;43.236;21.590;2022-11-18T15:28:22;333.20;2329.60
55016;DHT22;40919;43.236;21.590;2022-11-18T15:30:48;333.30;2329.60
55016;DHT22;40919;43.236;21.590;2022-11-18T15:33:14;333.20;2329.60
55016;DHT22;40919;43.236;21.590;2022-11-18T15:35:39;333.20;2329.60
55016;DHT22;40919;43.236;21.590;2022-11-18T15:38:05;333.20;2329.60
55016;DHT22;40919;43.236;21.590;2022-11-18T15:40:31;333.10;2329.60
55016;DHT22;40919;43.236;21.590;2022-11-18T15:42:57;333.20;2329.60
55016;DHT22;40919;43.236;21.590;2022-11-18T15:45:23;333.20;2329.60
55016;DHT22;40919;43.236;21.590;2022-11-18T15:47:50;333.20;2329.60
55016;DHT22;40919;43.236;21.590;2022-11-18T15:50:16;333.10;2329.60
55016;DHT22;40919;43.236;21.590;2022-11-18T15:52:43;333.10;2329.60
55016;DHT22;40919;43.236;21.590;2022-11-18T15:55:09;333.10;2329.60
55016;DHT22;40919;43.236;21.590;2022-11-18T15:57:34;333.10;2329.60
55016;DHT22;40919;43.236;21.590;2022-11-18T16:00:00;333.10;2329.60
55016;DHT22;40919;43.236;21.590;2022-11-18T16:02:26;333.10;2329.60
55016;DHT22;40919;43.236;21.590;2022-11-18T16:04:52;333.10;2329.60
55016;DHT22;40919;43.236;21.590;2022-11-18T16:07:17;333.10;2329.60
55016;DHT22;40919;43.236;21.590;2022-11-18T16:09:43;333.20;2329.60
55016;DHT22;40919;43.236;21.590;2022-11-18T16:12:27;333.20;2329.60
55016;DHT22;40919;43.236;21.590;2022-11-18T16:15:12;333.30;2329.60
55016;DHT22;40919;43.236;21.590;2022-11-18T16:17:56;333.50;2329.60
55016;DHT22;40919;43.236;21.590;2022-11-18T16:20:23;333.50;2329.60
55016;DHT22;40919;43.236;21.590;2022-11-18T16:22:49;333.40;2329.60
55016;DHT22;40919;43.236;21.590;2022-11-18T16:25:16;333.50;2329.60
55016;DHT22;40919;43.236;21.590;2022-11-18T16:27:42;333.50;2329.60
55016;DHT22;40919;43.236;21.590;2022-11-18T16:30:08;333.50;2329.60
55016;DHT22;40919;43.236;21.590;2022-11-18T16:32:54;333.50;2329.60
55016;DHT22;40919;43.236;21.590;2022-11-18T16:35:20;333.50;2329.60
55016;DHT22;40919;43.236;21.590;2022-11-18T16:37:46;333.50;2329.60
55016;DHT22;40919;43.236;21.590;2022-11-18T16:40:12;333.40;2329.60
55016;DHT22;40919;43.236;21.590;2022-11-18T16:42:38;333.40;2329.60
55016;DHT22;40919;43.236;21.590;2022-11-18T16:45:04;333.40;2329.60
55016;DHT22;40919;43.236;21.590;2022-11-18T16:47:30;333.50;2329.60
55016;DHT22;40919;43.236;21.590;2022-11-18T16:49:55;333.30;2329.60
55016;DHT22;40919;43.236;21.590;2022-11-18T16:52:21;333.40;2329.60
55016;DHT22;40919;43.236;21.590;2022-11-18T16:54:47;333.30;2329.60
55016;DHT22;40919;43.236;21.590;2022-11-18T16:57:13;333.40;2329.60
55016;DHT22;40919;43.236;21.590;2022-11-18T16:59:39;333.40;2329.60
55016;DHT22;40919;43.236;21.590;2022-11-18T17:02:05;333.30;2329.60
55016;DHT22;40919;43.236;21.590;2022-11-18T17:04:31;333.30;2329.60
55016;DHT22;40919;43.236;21.590;2022-11-18T17:07:00;333.30;2329.60
55016;DHT22;40919;43.236;21.590;2022-11-18T17:09:26;333.30;2329.60
55016;DHT22;40919;43.236;21.590;2022-11-18T17:11:54;333.40;2329.60
55016;DHT22;40919;43.236;21.590;2022-11-18T17:14:21;358.50;2329.60
55016;DHT22;40919;43.236;21.590;2022-11-18T17:16:47;333.40;2329.60
55016;DHT22;40919;43.236;21.590;2022-11-18T17:19:15;333.30;2329.60
55016;DHT22;40919;43.236;21.590;2022-11-18T17:21:42;333.30;2329.60
55016;DHT22;40919;43.236;21.590;2022-11-18T17:24:09;333.30;2329.60
55016;DHT22;40919;43.236;21.590;2022-11-18T17:26:36;333.30;2329.60
55016;DHT22;40919;43.236;21.590;2022-11-18T17:29:02;333.20;2329.60
55016;DHT22;40919;43.236;21.590;2022-11-18T17:31:28;333.20;2329.60
55016;DHT22;40919;43.236;21.590;2022-11-18T17:33:54;333.20;2329.60
55016;DHT22;40919;43.236;21.590;2022-11-18T17:36:26;333.20;2329.60
55016;DHT22;40919;43.236;21.590;2022-11-18T17:38:54;333.20;2329.60
55016;DHT22;40919;43.236;21.590;2022-11-18T17:41:22;333.20;2329.60
55016;DHT22;40919;43.236;21.590;2022-11-18T17:44:09;333.20;2329.60
55016;DHT22;40919;43.236;21.590;2022-11-18T17:46:35;333.20;2329.60
55016;DHT22;40919;43.236;21.590;2022-11-18T17:49:02;333.10;2329.60
55016;DHT22;40919;43.236;21.590;2022-11-18T17:51:29;333.20;2329.60
55016;DHT22;40919;43.236;21.590;2022-11-18T17:53:55;333.30;2329.60
55016;DHT22;40919;43.236;21.590;2022-11-18T17:56:22;333.00;2329.60
55016;DHT22;40919;43.236;21.590;2022-11-18T17:58:49;333.20;2329.60
55016;DHT22;40919;43.236;21.590;2022-11-18T18:01:16;333.20;2329.60
55016;DHT22;40919;43.236;21.590;2022-11-18T18:03:43;333.20;2329.60
55016;DHT22;40919;43.236;21.590;2022-11-18T18:06:10;333.20;2329.60
55016;DHT22;40919;43.236;21.590;2022-11-18T18:08:36;333.30;2329.60
55016;DHT22;40919;43.236;21.590;2022-11-18T18:11:11;333.30;2329.60
55016;DHT22;40919;43.236;21.590;2022-11-18T18:13:38;333.30;2329.60
55016;DHT22;40919;43.236;21.590;2022-11-18T18:16:23;333.30;2329.60
55016;DHT22;40919;43.236;21.590;2022-11-18T18:18:49;333.30;2329.60
55016;DHT22;40919;43.236;21.590;2022-11-18T18:21:16;333.30;2329.60
55016;DHT22;40919;43.236;21.590;2022-11-18T18:23:42;333.20;2329.60
55016;DHT22;40919;43.236;21.590;2022-11-18T18:26:09;333.30;2329.60
55016;DHT22;40919;43.236;21.590;2022-11-18T18:28:35;333.20;2329.60
55016;DHT22;40919;43.236;21.590;2022-11-18T18:31:06;333.20;2329.60
55016;DHT22;40919;43.236;21.590;2022-11-18T18:33:33;333.20;2329.60
55016;DHT22;40919;43.236;21.590;2022-11-18T18:36:02;333.20;2329.60
55016;DHT22;40919;43.236;21.590;2022-11-18T18:38:32;333.30;2329.60
55016;DHT22;40919;43.236;21.590;2022-11-18T18:41:03;333.40;2329.60
55016;DHT22;40919;43.236;21.590;2022-11-18T18:43:29;333.40;2329.60
55016;DHT22;40919;43.236;21.590;2022-11-18T18:45:59;333.40;2329.60
55016;DHT22;40919;43.236;21.590;2022-11-18T18:48:44;333.40;2329.60
55016;DHT22;40919;43.236;21.590;2022-11-18T18:51:11;333.40;2329.60
55016;DHT22;40919;43.236;21.590;2022-11-18T18:53:36;333.40;2329.60
55016;DHT22;40919;43.236;21.590;2022-11-18T18:56:02;333.40;2329.60
55016;DHT22;40919;43.236;21.590;2022-11-18T18:58:30;333.40;2329.60
55016;DHT22;40919;43.236;21.590;2022-11-18T19:01:04;333.40;2329.60
55016;DHT22;40919;43.236;21.590;2022-11-18T19:03:30;333.40;2329.60
55016;DHT22;40919;43.236;21.590;2022-11-18T19:05:56;333.40;2329.60
55016;DHT22;40919;43.236;21.590;2022-11-18T19:08:22;333.40;2329.60
55016;DHT22;40919;43.236;21.590;2022-11-18T19:10:47;333.40;2329.60
55016;DHT22;40919;43.236;21.590;2022-11-18T19:13:13;333.40;2329.60
55016;DHT22;40919;43.236;21.590;2022-11-18T19:15:39;333.40;2329.60
55016;DHT22;40919;43.236;21.590;2022-11-18T19:18:06;333.40;2329.60
55016;DHT22;40919;43.236;21.590;2022-11-18T19:20:32;333.40;2329.60
55016;DHT22;40919;43.236;21.590;2022-11-18T19:23:08;333.30;2329.60
55016;DHT22;40919;43.236;21.590;2022-11-18T19:25:35;333.40;2329.60
55016;DHT22;40919;43.236;21.590;2022-11-18T19:28:00;333.40;2329.60
55016;DHT22;40919;43.236;21.590;2022-11-18T19:30:26;333.40;2329.60
55016;DHT22;40919;43.236;21.590;2022-11-18T19:32:53;333.30;2329.60
55016;DHT22;40919;43.236;21.590;2022-11-18T19:35:21;333.30;2329.60
55016;DHT22;40919;43.236;21.590;2022-11-18T19:37:47;333.40;2329.60
55016;DHT22;40919;43.236;21.590;2022-11-18T19:40:13;333.40;2329.60
55016;DHT22;40919;43.236;21.590;2022-11-18T19:42:39;333.40;2329.60
55016;DHT22;40919;43.236;21.590;2022-11-18T19:45:08;333.30;2329.60
55016;DHT22;40919;43.236;21.590;2022-11-18T19:47:35;333.30;2329.60
55016;DHT22;40919;43.236;21.590;2022-11-18T19:50:01;333.30;2329.60
55016;DHT22;40919;43.236;21.590;2022-11-18T19:52:27;333.30;2329.60
55016;DHT22;40919;43.236;21.590;2022-11-18T19:54:53;333.30;2329.60
55016;DHT22;40919;43.236;21.590;2022-11-18T19:57:19;333.30;2329.60
55016;DHT22;40919;43.236;21.590;2022-11-18T19:59:45;333.20;2329.60
55016;DHT22;40919;43.236;21.590;2022-11-18T20:02:11;333.30;2329.60
55016;DHT22;40919;43.236;21.590;2022-11-18T20:04:36;333.30;2329.60
55016;DHT22;40919;43.236;21.590;2022-11-18T20:07:03;333.30;2329.60
55016;DHT22;40919;43.236;21.590;2022-11-18T20:09:29;333.30;2329.60
55016;DHT22;40919;43.236;21.590;2022-11-18T20:11:55;333.30;2329.60
55016;DHT22;40919;43.236;21.590;2022-11-18T20:14:21;333.30;2329.60
55016;DHT22;40919;43.236;21.590;2022-11-18T20:16:46;333.30;2329.60
55016;DHT22;40919;43.236;21.590;2022-11-18T20:19:12;333.30;2329.60
55016;DHT22;40919;43.236;21.590;2022-11-18T20:21:40;333.20;2329.60
55016;DHT22;40919;43.236;21.590;2022-11-18T20:24:12;333.20;2329.60
55016;DHT22;40919;43.236;21.590;2022-11-18T20:26:39;333.20;2329.60
55016;DHT22;40919;43.236;21.590;2022-11-18T20:29:06;333.20;2329.60
55016;DHT22;40919;43.236;21.590;2022-11-18T20:31:32;333.20;2329.60
55016;DHT22;40919;43.236;21.590;2022-11-18T20:33:59;333.20;2329.60
55016;DHT22;40919;43.236;21.590;2022-11-18T20:36:30;333.20;2329.60
55016;DHT22;40919;43.236;21.590;2022-11-18T20:38:58;333.20;2329.60
55016;DHT22;40919;43.236;21.590;2022-11-18T20:41:25;333.20;2329.60
55016;DHT22;40919;43.236;21.590;2022-11-18T20:43:51;333.20;2329.60
55016;DHT22;40919;43.236;21.590;2022-11-18T20:46:19;333.20;2329.60
55016;DHT22;40919;43.236;21.590;2022-11-18T20:48:45;333.20;2329.60
55016;DHT22;40919;43.236;21.590;2022-11-18T20:51:13;333.20;2329.60
55016;DHT22;40919;43.236;21.590;2022-11-18T20:53:40;333.20;2329.60
55016;DHT22;40919;43.236;21.590;2022-11-18T20:56:07;333.20;2329.60
55016;DHT22;40919;43.236;21.590;2022-11-18T20:58:33;333.20;2329.60
55016;DHT22;40919;43.236;21.590;2022-11-18T21:01:18;333.20;2329.60
55016;DHT22;40919;43.236;21.590;2022-11-18T21:03:52;333.20;2329.60
55016;DHT22;40919;43.236;21.590;2022-11-18T21:06:19;333.20;2329.60
55016;DHT22;40919;43.236;21.590;2022-11-18T21:08:45;333.20;2329.60
55016;DHT22;40919;43.236;21.590;2022-11-18T21:11:12;333.30;2329.60
55016;DHT22;40919;43.236;21.590;2022-11-18T21:13:39;333.30;2329.60
55016;DHT22;40919;43.236;21.590;2022-11-18T21:16:24;333.30;2329.60
55016;DHT22;40919;43.236;21.590;2022-11-18T21:18:50;333.20;2329.60
55016;DHT22;40919;43.236;21.590;2022-11-18T21:21:16;333.20;2329.60
55016;DHT22;40919;43.236;21.590;2022-11-18T21:24:01;333.30;2329.60
55016;DHT22;40919;43.236;21.590;2022-11-18T21:26:31;333.20;2329.60
55016;DHT22;40919;43.236;21.590;2022-11-18T21:28:59;333.20;2329.60
55016;DHT22;40919;43.236;21.590;2022-11-18T21:31:26;333.20;2329.60
55016;DHT22;40919;43.236;21.590;2022-11-18T21:33:53;333.60;2329.60
55016;DHT22;40919;43.236;21.590;2022-11-18T21:36:20;333.20;2329.60
55016;DHT22;40919;43.236;21.590;2022-11-18T21:38:47;333.20;2329.60
55016;DHT22;40919;43.236;21.590;2022-11-18T21:41:13;333.20;2329.60
55016;DHT22;40919;43.236;21.590;2022-11-18T21:43:39;333.20;2329.60
55016;DHT22;40919;43.236;21.590;2022-11-18T21:46:10;333.30;2329.60
55016;DHT22;40919;43.236;21.590;2022-11-18T21:48:37;333.10;2329.60
55016;DHT22;40919;43.236;21.590;2022-11-18T21:51:05;333.10;2329.60
55016;DHT22;40919;43.236;21.590;2022-11-18T21:53:32;333.10;2329.60
55016;DHT22;40919;43.236;21.590;2022-11-18T21:56:02;333.10;2329.60
55016;DHT22;40919;43.236;21.590;2022-11-18T21:58:28;333.20;2329.60
55016;DHT22;40919;43.236;21.590;2022-11-18T22:01:13;333.20;2329.60
55016;DHT22;40919;43.236;21.590;2022-11-18T22:03:44;333.10;2329.60
55016;DHT22;40919;43.236;21.590;2022-11-18T22:06:12;333.00;2329.60
55016;DHT22;40919;43.236;21.590;2022-11-18T22:08:39;333.00;2329.60
55016;DHT22;40919;43.236;21.590;2022-11-18T22:11:07;333.00;2329.60
55016;DHT22;40919;43.236;21.590;2022-11-18T22:13:34;333.00;2329.60
55016;DHT22;40919;43.236;21.590;2022-11-18T22:16:00;333.00;2329.60
55016;DHT22;40919;43.236;21.590;2022-11-18T22:18:30;333.00;2329.60
55016;DHT22;40919;43.236;21.590;2022-11-18T22:21:01;333.00;2329.60
55016;DHT22;40919;43.236;21.590;2022-11-18T22:23:28;333.10;2329.60
55016;DHT22;40919;43.236;21.590;2022-11-18T22:25:56;333.10;2329.60
55016;DHT22;40919;43.236;21.590;2022-11-18T22:28:22;333.00;2329.60
55016;DHT22;40919;43.236;21.590;2022-11-18T22:30:48;333.00;2329.60
55016;DHT22;40919;43.236;21.590;2022-11-18T22:33:13;333.10;2329.60
55016;DHT22;40919;43.236;21.590;2022-11-18T22:35:39;333.10;2329.60
55016;DHT22;40919;43.236;21.590;2022-11-18T22:38:05;333.10;2329.60
55016;DHT22;40919;43.236;21.590;2022-11-18T22:40:31;333.10;2329.60
55016;DHT22;40919;43.236;21.590;2022-11-18T22:42:56;333.00;2329.60
55016;DHT22;40919;43.236;21.590;2022-11-18T22:45:22;333.00;2329.60
55016;DHT22;40919;43.236;21.590;2022-11-18T22:47:48;332.80;2329.60
55016;DHT22;40919;43.236;21.590;2022-11-18T22:50:15;332.80;2329.60
55016;DHT22;40919;43.236;21.590;2022-11-18T22:52:42;332.80;2329.60
55016;DHT22;40919;43.236;21.590;2022-11-18T22:55:10;332.80;2329.60
55016;DHT22;40919;43.236;21.590;2022-11-18T22:57:36;332.80;2329.60
55016;DHT22;40919;43.236;21.590;2022-11-18T23:00:03;308.10;2304.00
55016;DHT22;40919;43.236;21.590;2022-11-18T23:02:29;308.10;2304.00
55016;DHT22;40919;43.236;21.590;2022-11-18T23:04:55;332.80;2329.60
55016;DHT22;40919;43.236;21.590;2022-11-18T23:07:21;308.10;2304.00
55016;DHT22;40919;43.236;21.590;2022-11-18T23:09:47;308.10;2304.00
55016;DHT22;40919;43.236;21.590;2022-11-18T23:12:13;308.10;2304.00
55016;DHT22;40919;43.236;21.590;2022-11-18T23:14:57;308.10;2304.00
55016;DHT22;40919;43.236;21.590;2022-11-18T23:17:22;308.10;2304.00
55016;DHT22;40919;43.236;21.590;2022-11-18T23:19:48;308.00;2304.00
55016;DHT22;40919;43.236;21.590;2022-11-18T23:22:14;308.00;2304.00
55016;DHT22;40919;43.236;21.590;2022-11-18T23:24:40;308.00;2304.00
55016;DHT22;40919;43.236;21.590;2022-11-18T23:27:06;308.00;2304.00
55016;DHT22;40919;43.236;21.590;2022-11-18T23:29:31;308.00;2304.00
55016;DHT22;40919;43.236;21.590;2022-11-18T23:31:57;308.00;2304.00
55016;DHT22;40919;43.236;21.590;2022-11-18T23:34:23;308.00;2304.00
55016;DHT22;40919;43.236;21.590;2022-11-18T23:36:49;308.00;2304.00
55016;DHT22;40919;43.236;21.590;2022-11-18T23:39:15;307.90;2304.00
55016;DHT22;40919;43.236;21.590;2022-11-18T23:41:41;307.90;2304.00
55016;DHT22;40919;43.236;21.590;2022-11-18T23:44:07;307.90;2304.00
55016;DHT22;40919;43.236;21.590;2022-11-18T23:46:33;307.90;2304.00
55016;DHT22;40919;43.236;21.590;2022-11-18T23:48:59;307.80;2304.00
55016;DHT22;40919;43.236;21.590;2022-11-18T23:51:25;307.80;2304.00
55016;DHT22;40919;43.236;21.590;2022-11-18T23:53:55;307.70;2304.00
55016;DHT22;40919;43.236;21.590;2022-11-18T23:56:23;307.80;2304.00
55016;DHT22;40919;43.236;21.590;2022-11-18T23:58:51;307.80;2304.00
